createdAt,value
2023-03-06T00:01:23.637Z,50.50
2023-03-06T00:03:52.724Z,50.50
2023-03-06T00:06:21.114Z,50.80
2023-03-06T00:08:49.045Z,50.40
2023-03-06T00:11:17.435Z,51.30
2023-03-06T00:13:45.564Z,51.30
2023-03-06T00:16:13.770Z,51.20
2023-03-06T00:31:00.960Z,50.70
2023-03-06T00:33:30.138Z,51.20
2023-03-06T00:35:58.426Z,51.50
2023-03-06T00:38:26.497Z,51.50
2023-03-06T00:40:54.856Z,51.20
2023-03-06T00:43:23.066Z,51.20
2023-03-06T00:45:51.498Z,50.70
2023-03-06T00:48:19.837Z,51.10
2023-03-06T00:50:48.131Z,51.30
2023-03-06T00:53:16.342Z,51.00
2023-03-06T00:55:47.692Z,51.20
2023-03-06T00:58:16.069Z,51.20
2023-03-06T01:00:44.036Z,51.00
2023-03-06T01:03:13.174Z,51.60
2023-03-06T01:05:41.804Z,51.30
2023-03-06T01:08:10.073Z,51.50
2023-03-06T01:10:41.565Z,51.50
2023-03-06T01:13:10.679Z,51.50
2023-03-06T01:15:39.116Z,51.30
2023-03-06T01:18:07.404Z,51.10
2023-03-06T01:20:37.554Z,51.30
2023-03-06T01:23:05.847Z,51.20
2023-03-06T01:25:34.205Z,51.20
2023-03-06T01:28:02.169Z,51.20
2023-03-06T01:30:30.636Z,51.10
2023-03-06T01:32:59.023Z,50.70
2023-03-06T01:35:27.316Z,51.30
2023-03-06T01:37:55.559Z,51.30
2023-03-06T01:40:23.789Z,51.30
2023-03-06T01:42:52.356Z,51.10
2023-03-06T01:45:20.596Z,51.10
2023-03-06T01:47:48.909Z,51.30
2023-03-06T01:50:16.822Z,51.50
2023-03-06T01:52:53.585Z,51.50
2023-03-06T01:55:28.334Z,51.60
2023-03-06T01:58:01.347Z,51.30
2023-03-06T02:00:30.630Z,51.10
2023-03-06T02:03:13.277Z,51.30
2023-03-06T02:05:43.164Z,51.40
2023-03-06T02:08:17.649Z,51.50
2023-03-06T02:11:10.473Z,51.40
2023-03-06T02:13:40.064Z,51.50
2023-03-06T02:16:11.069Z,51.40
2023-03-06T02:18:41.211Z,51.70
2023-03-06T02:21:24.662Z,51.70
2023-03-06T02:24:38.344Z,51.50
2023-03-06T02:27:08.798Z,51.60
2023-03-06T02:29:37.145Z,51.50
2023-03-06T02:32:05.884Z,51.40
2023-03-06T02:34:40.142Z,51.90
2023-03-06T02:37:10.738Z,51.80
2023-03-06T02:39:45.153Z,51.90
2023-03-06T02:42:19.908Z,51.90
2023-03-06T02:44:50.013Z,51.80
2023-03-06T02:47:18.288Z,52.10
2023-03-06T02:49:46.673Z,52.20
2023-03-06T02:52:14.914Z,52.20
2023-03-06T02:54:43.147Z,52.10
2023-03-06T02:57:11.522Z,52.20
2023-03-06T02:59:39.600Z,51.80
2023-03-06T03:02:07.975Z,52.00
2023-03-06T03:04:36.189Z,52.10
2023-03-06T03:07:05.069Z,52.20
2023-03-06T03:09:33.384Z,52.20
2023-03-06T03:12:01.809Z,52.30
2023-03-06T03:14:30.650Z,52.50
2023-03-06T03:16:58.581Z,52.10
2023-03-06T03:19:28.042Z,52.60
2023-03-06T03:21:57.089Z,52.70
2023-03-06T03:24:25.582Z,52.80
2023-03-06T03:26:55.352Z,52.90
2023-03-06T03:29:25.259Z,52.70
2023-03-06T03:31:54.808Z,53.00
2023-03-06T03:34:26.351Z,53.20
2023-03-06T03:36:55.246Z,53.70
2023-03-06T03:39:23.459Z,54.10
2023-03-06T03:41:51.872Z,54.40
2023-03-06T03:44:21.169Z,54.50
2023-03-06T03:46:50.260Z,54.40
2023-03-06T03:49:22.438Z,54.30
2023-03-06T03:51:51.958Z,54.50
2023-03-06T03:54:21.530Z,54.40
2023-03-06T03:56:51.395Z,54.40
2023-03-06T03:59:25.720Z,54.40
2023-03-06T04:02:16.920Z,53.60
2023-03-06T04:04:55.764Z,54.00
2023-03-06T04:07:24.030Z,53.90
2023-03-06T04:09:52.249Z,54.10
2023-03-06T04:12:21.309Z,53.90
2023-03-06T04:14:49.371Z,54.10
2023-03-06T04:17:18.459Z,53.90
2023-03-06T04:19:46.448Z,54.00
2023-03-06T04:22:14.943Z,54.20
2023-03-06T04:24:43.882Z,54.30
2023-03-06T04:27:12.651Z,54.10
2023-03-06T04:29:40.868Z,54.20
2023-03-06T04:32:09.451Z,54.20
2023-03-06T04:34:37.826Z,53.90
2023-03-06T04:37:07.691Z,54.40
2023-03-06T04:39:35.605Z,54.70
2023-03-06T04:42:03.885Z,54.60
2023-03-06T04:44:31.911Z,54.60
2023-03-06T04:47:00.128Z,54.50
2023-03-06T04:49:28.330Z,54.20
2023-03-06T04:51:56.648Z,54.50
2023-03-06T04:54:24.801Z,54.60
2023-03-06T04:56:53.104Z,54.60
2023-03-06T04:59:21.514Z,55.00
2023-03-06T05:01:49.404Z,55.00
2023-03-06T05:04:17.621Z,54.90
2023-03-06T05:06:46.071Z,54.60
2023-03-06T05:09:13.908Z,54.80
2023-03-06T05:11:42.262Z,55.10
2023-03-06T05:14:10.225Z,55.00
2023-03-06T05:16:38.400Z,55.10
2023-03-06T05:19:06.955Z,55.00
2023-03-06T05:21:35.279Z,55.20
2023-03-06T05:24:03.230Z,55.50
2023-03-06T05:26:31.444Z,56.10
2023-03-06T05:28:59.766Z,56.20
2023-03-06T05:31:28.010Z,56.50
2023-03-06T05:33:57.756Z,56.70
2023-03-06T05:36:26.075Z,56.70
2023-03-06T05:38:54.133Z,56.90
2023-03-06T05:41:22.440Z,57.30
2023-03-06T05:43:50.787Z,57.10
2023-03-06T05:46:19.091Z,57.70
2023-03-06T05:48:47.142Z,57.60
2023-03-06T05:51:15.508Z,56.50
2023-03-06T05:53:43.691Z,57.30
2023-03-06T05:56:12.431Z,57.30
2023-03-06T05:58:40.981Z,57.30
2023-03-06T06:01:14.608Z,57.30
2023-03-06T06:03:43.712Z,57.50
2023-03-06T06:06:14.371Z,57.60
2023-03-06T06:08:43.465Z,56.90
2023-03-06T06:11:13.648Z,57.10
2023-03-06T06:13:42.216Z,57.30
2023-03-06T06:16:11.709Z,57.30
2023-03-06T06:18:41.480Z,57.40
2023-03-06T06:21:11.788Z,57.50
2023-03-06T06:23:40.105Z,57.40
2023-03-06T06:26:09.825Z,57.30
2023-03-06T06:28:38.311Z,58.30
2023-03-06T06:31:11.855Z,58.00
2023-03-06T06:33:41.249Z,58.60
2023-03-06T06:36:21.238Z,58.40
2023-03-06T06:38:50.247Z,58.10
2023-03-06T06:41:42.376Z,57.60
2023-03-06T06:44:09.355Z,58.50
2023-03-06T06:49:26.602Z,58.50
2023-03-06T06:51:54.951Z,58.40
2023-03-06T06:54:22.856Z,57.20
2023-03-06T06:56:51.084Z,58.00
2023-03-06T06:59:19.559Z,58.20
2023-03-06T07:01:47.473Z,58.10
2023-03-06T07:04:16.024Z,58.00
2023-03-06T07:06:44.445Z,57.60
2023-03-06T07:09:12.754Z,56.50
2023-03-06T07:11:41.732Z,57.00
2023-03-06T07:14:10.173Z,56.70
2023-03-06T07:16:38.056Z,56.90
2023-03-06T07:19:07.341Z,56.70
2023-03-06T07:21:36.834Z,56.50
2023-03-06T07:24:05.323Z,56.50
2023-03-06T07:26:34.793Z,56.70
2023-03-06T07:29:04.204Z,57.00
2023-03-06T07:31:32.700Z,57.10
2023-03-06T07:34:03.179Z,57.30
2023-03-06T07:36:33.818Z,56.70
2023-03-06T07:39:02.108Z,57.50
2023-03-06T07:41:29.994Z,57.30
2023-03-06T07:43:58.346Z,57.30
2023-03-06T07:46:26.797Z,57.30
2023-03-06T07:48:55.229Z,57.40
2023-03-06T07:51:23.205Z,57.20
2023-03-06T07:53:51.526Z,57.10
2023-03-06T07:56:19.549Z,56.90
2023-03-06T07:58:48.379Z,57.20
2023-03-06T08:01:19.477Z,57.60
2023-03-06T08:03:48.573Z,57.30
2023-03-06T08:06:22.671Z,56.90
2023-03-06T08:08:52.792Z,57.40
2023-03-06T08:11:25.470Z,57.20
2023-03-06T08:13:54.582Z,57.50
2023-03-06T08:16:27.326Z,57.50
2023-03-06T08:18:56.355Z,57.10
2023-03-06T08:21:27.503Z,57.40
2023-03-06T08:23:56.612Z,57.40
2023-03-06T08:26:30.434Z,57.20
2023-03-06T08:29:00.663Z,57.10
2023-03-06T08:31:33.732Z,57.10
2023-03-06T08:34:07.703Z,57.80
2023-03-06T08:36:36.044Z,57.00
2023-03-06T08:39:05.315Z,57.40
2023-03-06T08:41:36.994Z,57.30
2023-03-06T08:44:06.066Z,57.30
2023-03-06T08:46:35.670Z,57.10
2023-03-06T08:49:07.824Z,57.10
2023-03-06T08:51:36.225Z,57.30
2023-03-06T08:54:04.798Z,57.20
2023-03-06T08:56:34.902Z,57.50
2023-03-06T08:59:05.177Z,57.70
2023-03-06T09:01:36.039Z,57.10
2023-03-06T09:04:09.952Z,57.30
2023-03-06T09:06:42.059Z,57.00
2023-03-06T09:09:10.573Z,56.70
2023-03-06T09:11:39.853Z,56.90
2023-03-06T09:14:08.299Z,56.60
2023-03-06T09:16:36.541Z,56.30
2023-03-06T09:19:04.691Z,56.20
2023-03-06T09:21:32.985Z,56.30
2023-03-06T09:24:01.422Z,55.90
2023-03-06T09:26:43.319Z,56.60
2023-03-06T09:29:13.779Z,56.80
2023-03-06T09:31:42.038Z,56.60
2023-03-06T09:34:12.155Z,56.50
2023-03-06T09:36:56.050Z,56.70
2023-03-06T09:39:26.518Z,57.10
2023-03-06T09:41:55.856Z,57.70
2023-03-06T09:44:28.442Z,57.90
2023-03-06T09:47:35.343Z,58.10
2023-03-06T09:50:11.503Z,58.20
2023-03-06T09:53:00.040Z,58.00
2023-03-06T09:55:36.733Z,58.00
2023-03-06T09:58:35.082Z,58.20
2023-03-06T10:01:12.566Z,58.60
2023-03-06T10:03:54.946Z,57.50
2023-03-06T10:06:35.492Z,57.40
2023-03-06T10:09:06.642Z,57.10
2023-03-06T10:11:46.224Z,57.20
2023-03-06T10:14:41.638Z,57.80
2023-03-06T10:17:17.396Z,58.10
2023-03-06T10:19:46.174Z,57.90
2023-03-06T10:22:40.183Z,57.60
2023-03-06T10:25:17.504Z,57.60
2023-03-06T10:27:51.253Z,57.40
2023-03-06T10:30:34.275Z,58.00
2023-03-06T10:33:42.819Z,57.90
2023-03-06T10:36:17.686Z,57.20
2023-03-06T10:38:47.873Z,56.90
2023-03-06T10:41:25.304Z,56.70
2023-03-06T10:44:05.857Z,56.60
2023-03-06T10:46:38.661Z,56.70
2023-03-06T10:49:23.326Z,56.30
2023-03-06T10:52:25.944Z,55.90
2023-03-06T10:55:17.107Z,55.80
2023-03-06T10:57:45.506Z,55.70
2023-03-06T11:00:28.559Z,55.50
2023-03-06T11:03:24.734Z,55.50
2023-03-06T11:06:12.285Z,55.50
2023-03-06T11:08:41.755Z,55.20
2023-03-06T11:11:14.494Z,55.20
2023-03-06T11:13:45.201Z,55.00
2023-03-06T11:16:29.071Z,55.00
2023-03-06T11:19:01.186Z,54.90
2023-03-06T11:21:33.438Z,54.90
2023-03-06T11:24:17.988Z,54.80
2023-03-06T11:26:56.193Z,54.70
2023-03-06T11:29:30.260Z,54.70
2023-03-06T11:32:26.744Z,54.70
2023-03-06T11:35:22.331Z,54.80
2023-03-06T11:38:01.198Z,54.70
2023-03-06T11:40:54.361Z,54.50
2023-03-06T11:43:36.552Z,54.50
2023-03-06T11:46:29.663Z,54.30
2023-03-06T11:49:25.519Z,54.40
2023-03-06T11:52:00.823Z,54.30
2023-03-06T11:54:29.230Z,54.30
2023-03-06T11:57:20.038Z,54.20
2023-03-06T12:00:02.994Z,54.20
2023-03-06T12:02:50.520Z,54.20
2023-03-06T12:05:37.620Z,54.20
2023-03-06T12:08:27.480Z,54.20
2023-03-06T12:11:03.840Z,54.20
2023-03-06T12:16:59.193Z,54.10
2023-03-06T12:19:33.576Z,54.00
2023-03-06T12:22:20.259Z,54.00
2023-03-06T12:25:07.394Z,53.80
2023-03-06T12:27:52.459Z,53.90
2023-03-06T12:30:34.998Z,53.90
2023-03-06T12:33:27.708Z,53.70
2023-03-06T12:36:22.011Z,53.60
2023-03-06T12:39:27.175Z,53.70
2023-03-06T12:41:55.572Z,53.60
2023-03-06T12:44:42.142Z,53.40
2023-03-06T12:47:13.982Z,53.30
2023-03-06T12:49:53.812Z,53.30
2023-03-06T12:52:30.507Z,53.30
2023-03-06T12:55:06.416Z,53.00
2023-03-06T12:57:34.830Z,53.10
2023-03-06T13:00:02.954Z,53.00
2023-03-06T13:03:07.149Z,53.00
2023-03-06T13:05:38.420Z,53.00
2023-03-06T13:08:25.528Z,52.80
2023-03-06T13:11:12.314Z,52.70
2023-03-06T13:13:48.510Z,52.60
2023-03-06T13:16:19.560Z,52.50
2023-03-06T13:18:56.561Z,52.60
2023-03-06T13:21:45.054Z,52.60
2023-03-06T13:24:18.450Z,52.50
2023-03-06T13:26:46.692Z,52.40
2023-03-06T13:29:38.990Z,52.20
2023-03-06T13:32:19.856Z,52.30
2023-03-06T13:34:48.823Z,52.10
2023-03-06T13:37:20.194Z,51.90
2023-03-06T13:39:57.701Z,51.70
2023-03-06T13:42:32.147Z,51.70
2023-03-06T13:45:24.087Z,51.50
2023-03-06T13:48:21.188Z,51.60
2023-03-06T13:50:49.316Z,51.60
2023-03-06T13:53:27.733Z,51.70
2023-03-06T13:56:26.844Z,51.60
2023-03-06T13:59:28.746Z,51.40
2023-03-06T14:02:02.948Z,51.40
2023-03-06T14:04:53.258Z,51.30
2023-03-06T14:07:27.470Z,51.30
2023-03-06T14:10:16.137Z,51.20
2023-03-06T14:12:50.267Z,51.30
2023-03-06T14:15:44.988Z,51.30
2023-03-06T14:18:24.369Z,51.40
2023-03-06T14:20:58.217Z,51.30
2023-03-06T14:23:29.900Z,51.40
2023-03-06T14:26:16.142Z,51.20
2023-03-06T14:28:46.724Z,51.30
2023-03-06T14:31:19.543Z,51.10
2023-03-06T14:33:54.275Z,51.50
2023-03-06T14:36:34.733Z,50.90
2023-03-06T14:39:08.858Z,50.80
2023-03-06T14:41:38.030Z,50.90
2023-03-06T14:44:23.839Z,50.70
2023-03-06T14:46:55.069Z,50.70
2023-03-06T14:49:27.112Z,50.60
2023-03-06T14:51:58.612Z,50.60
2023-03-06T14:54:35.632Z,50.50
2023-03-06T14:57:09.144Z,50.40
2023-03-06T14:59:47.298Z,50.30
2023-03-06T15:02:22.105Z,50.00
2023-03-06T15:05:14.920Z,50.00
2023-03-06T15:07:43.306Z,49.70
2023-03-06T15:10:32.005Z,49.80
2023-03-06T15:13:27.504Z,49.50
2023-03-06T15:16:05.042Z,49.50
2023-03-06T15:18:34.985Z,50.00
2023-03-06T15:21:21.132Z,49.40
2023-03-06T15:23:54.546Z,49.40
2023-03-06T15:26:32.178Z,49.40
2023-03-06T15:29:10.188Z,49.20
2023-03-06T15:31:41.844Z,49.20
2023-03-06T15:34:10.117Z,49.10
2023-03-06T15:36:54.575Z,49.10
2023-03-06T15:39:37.864Z,49.00
2023-03-06T15:42:27.364Z,49.20
2023-03-06T15:44:58.385Z,49.10
2023-03-06T15:47:26.910Z,49.10
2023-03-06T15:49:55.294Z,49.30
2023-03-06T15:52:23.318Z,49.30
2023-03-06T15:54:51.725Z,49.20
2023-03-06T15:57:27.461Z,49.20
2023-03-06T15:59:56.266Z,49.00
2023-03-06T16:03:03.432Z,48.50
2023-03-06T16:05:31.991Z,49.00
2023-03-06T16:07:59.862Z,48.80
2023-03-06T16:10:30.559Z,48.80
2023-03-06T16:13:03.358Z,48.60
2023-03-06T16:15:36.098Z,48.60
2023-03-06T16:18:04.735Z,48.80
2023-03-06T16:20:33.651Z,48.80
2023-03-06T16:23:01.958Z,48.70
2023-03-06T16:25:30.299Z,48.60
2023-03-06T16:28:00.530Z,48.60
2023-03-06T16:30:30.819Z,48.60
2023-03-06T16:32:59.912Z,48.50
2023-03-06T16:35:28.395Z,48.30
2023-03-06T16:37:56.658Z,48.10
2023-03-06T16:40:28.193Z,48.10
2023-03-06T16:42:56.849Z,48.10
2023-03-06T16:45:25.961Z,47.90
2023-03-06T16:47:54.805Z,47.90
2023-03-06T16:50:29.697Z,47.60
2023-03-06T16:52:58.573Z,47.50
2023-03-06T16:55:27.656Z,47.30
2023-03-06T16:57:56.202Z,47.10
2023-03-06T17:00:25.020Z,47.20
2023-03-06T17:02:53.392Z,46.90
2023-03-06T17:05:21.755Z,47.00
2023-03-06T17:07:49.832Z,47.00
2023-03-06T17:10:19.958Z,46.80
2023-03-06T17:12:48.349Z,46.50
2023-03-06T17:15:16.548Z,46.50
2023-03-06T17:17:44.498Z,46.10
2023-03-06T17:20:13.730Z,46.00
2023-03-06T17:22:42.294Z,46.00
2023-03-06T17:25:11.341Z,46.00
2023-03-06T17:27:42.531Z,45.80
2023-03-06T17:30:10.936Z,45.70
2023-03-06T17:32:39.834Z,45.50
2023-03-06T17:35:11.375Z,45.40
2023-03-06T17:37:39.955Z,45.50
2023-03-06T17:40:09.851Z,45.60
2023-03-06T17:42:38.062Z,45.70
2023-03-06T17:45:06.892Z,45.70
2023-03-06T17:47:37.805Z,45.60
2023-03-06T17:50:06.626Z,45.60
2023-03-06T17:52:34.912Z,45.60
2023-03-06T17:55:03.162Z,45.60
2023-03-06T17:57:31.185Z,45.50
2023-03-06T17:59:59.634Z,45.30
2023-03-06T18:02:28.048Z,45.30
2023-03-06T18:04:56.569Z,45.10
2023-03-06T18:07:25.129Z,44.60
2023-03-06T18:09:53.521Z,44.80
2023-03-06T18:12:21.646Z,45.10
2023-03-06T18:14:50.002Z,45.10
2023-03-06T18:17:18.354Z,45.40
2023-03-06T18:19:46.561Z,45.20
2023-03-06T18:22:14.975Z,45.20
2023-03-06T18:24:43.219Z,45.40
2023-03-06T18:27:11.512Z,45.20
2023-03-06T18:29:39.939Z,45.30
2023-03-06T18:32:08.271Z,45.30
2023-03-06T18:34:36.275Z,45.20
2023-03-06T18:37:04.604Z,45.50
2023-03-06T18:39:32.989Z,45.70
2023-03-06T18:42:00.953Z,45.80
2023-03-06T18:44:29.175Z,45.60
2023-03-06T18:46:57.338Z,45.70
2023-03-06T18:49:25.680Z,45.70
2023-03-06T18:51:53.650Z,45.20
2023-03-06T18:54:22.047Z,45.80
2023-03-06T18:56:49.886Z,45.80
2023-03-06T18:59:19.002Z,46.20
2023-03-06T19:01:48.078Z,46.50
2023-03-06T19:04:16.473Z,45.90
2023-03-06T19:06:44.748Z,46.00
2023-03-06T19:09:13.051Z,45.50
2023-03-06T19:11:41.111Z,45.40
2023-03-06T19:14:09.391Z,45.80
2023-03-06T19:16:37.604Z,45.50
2023-03-06T19:19:05.577Z,46.20
2023-03-06T19:21:34.032Z,46.20
2023-03-06T19:24:03.513Z,46.30
2023-03-06T19:26:31.941Z,46.10
2023-03-06T19:29:00.398Z,45.80
2023-03-06T19:31:28.782Z,45.60
2023-03-06T19:33:57.678Z,45.20
2023-03-06T19:36:28.224Z,45.00
2023-03-06T19:38:58.522Z,46.00
2023-03-06T19:41:27.336Z,45.90
2023-03-06T19:43:58.539Z,46.20
2023-03-06T19:46:27.939Z,46.40
2023-03-06T19:49:01.242Z,46.30
2023-03-06T19:51:30.242Z,46.10
2023-03-06T19:53:58.671Z,45.90
2023-03-06T19:56:28.579Z,45.70
2023-03-06T19:58:57.137Z,45.30
2023-03-06T20:01:27.643Z,45.70
2023-03-06T20:03:57.879Z,46.40
2023-03-06T20:06:29.040Z,46.20
2023-03-06T20:08:57.384Z,46.20
2023-03-06T20:11:28.061Z,46.10
2023-03-06T20:14:01.628Z,46.70
2023-03-06T20:16:31.097Z,46.10
2023-03-06T20:19:01.013Z,46.40
2023-03-06T20:21:31.425Z,46.60
2023-03-06T20:23:59.936Z,46.70
2023-03-06T20:26:29.389Z,46.80
2023-03-06T20:28:58.574Z,46.10
2023-03-06T20:31:29.290Z,45.90
2023-03-06T20:33:59.775Z,46.50
2023-03-06T20:36:33.055Z,46.50
2023-03-06T20:39:02.230Z,46.70
2023-03-06T20:41:31.944Z,47.00
2023-03-06T20:44:01.891Z,46.70
2023-03-06T20:46:31.364Z,47.10
2023-03-06T20:48:59.826Z,47.20
2023-03-06T20:51:30.859Z,45.30
2023-03-06T20:54:00.862Z,45.70
2023-03-06T20:56:34.237Z,47.10
2023-03-06T20:59:03.344Z,47.10
2023-03-06T21:01:34.948Z,47.00
2023-03-06T21:04:04.126Z,47.20
2023-03-06T21:06:33.505Z,46.30
2023-03-06T21:09:02.940Z,46.10
2023-03-06T21:11:31.345Z,46.40
2023-03-06T21:13:59.710Z,46.70
2023-03-06T21:16:28.470Z,47.70
2023-03-06T21:19:00.935Z,46.90
2023-03-06T21:21:32.296Z,46.60
2023-03-06T21:24:01.665Z,46.50
2023-03-06T21:26:32.232Z,47.20
2023-03-06T21:29:01.470Z,47.60
2023-03-06T21:31:30.531Z,47.50
2023-03-06T21:33:58.908Z,47.70
2023-03-06T21:36:27.660Z,47.80
2023-03-06T21:38:56.187Z,47.80
2023-03-06T21:41:29.302Z,48.00
2023-03-06T21:44:02.374Z,48.20
2023-03-06T21:46:31.271Z,48.20
2023-03-06T21:48:59.917Z,48.30
2023-03-06T21:51:28.321Z,48.50
2023-03-06T21:53:56.877Z,48.60
2023-03-06T21:56:25.599Z,48.90
2023-03-06T21:58:53.917Z,49.00
2023-03-06T22:01:25.463Z,48.80
2023-03-06T22:17:00.108Z,48.90
2023-03-06T22:19:28.527Z,49.50
2023-03-06T22:21:56.889Z,49.90
2023-03-06T22:24:24.830Z,50.10
2023-03-06T22:26:53.220Z,50.60
2023-03-06T22:29:21.725Z,51.90
2023-03-06T22:31:50.404Z,52.20
2023-03-06T22:34:19.041Z,52.10
2023-03-06T22:36:47.473Z,53.30
2023-03-06T22:39:15.928Z,54.00
2023-03-06T22:41:43.856Z,53.20
2023-03-06T22:44:18.135Z,53.00
2023-03-06T22:46:47.363Z,52.90
2023-03-06T22:49:15.810Z,50.10
2023-03-06T22:51:44.814Z,52.10
2023-03-06T22:54:13.365Z,51.80
2023-03-06T22:56:41.611Z,53.60
2023-03-06T22:59:09.758Z,53.20
2023-03-06T23:01:38.191Z,52.60
2023-03-06T23:04:06.247Z,53.00
2023-03-06T23:06:38.500Z,51.30
2023-03-06T23:09:21.785Z,51.20
2023-03-06T23:12:08.570Z,50.60
2023-03-06T23:14:55.588Z,50.60
2023-03-06T23:17:42.580Z,50.00
2023-03-06T23:20:29.538Z,49.60
2023-03-06T23:23:16.513Z,48.10
2023-03-06T23:25:45.161Z,47.00
2023-03-06T23:28:13.683Z,48.30
2023-03-06T23:30:42.849Z,46.40
2023-03-06T23:33:11.754Z,46.60
2023-03-06T23:35:40.270Z,46.90
2023-03-06T23:38:08.558Z,47.10
2023-03-06T23:40:39.107Z,47.40
2023-03-06T23:43:07.803Z,46.60
2023-03-06T23:45:36.105Z,46.00
2023-03-06T23:48:07.095Z,46.70
2023-03-06T23:50:35.551Z,45.90
2023-03-06T23:53:03.834Z,45.90
2023-03-06T23:55:31.942Z,46.20
2023-03-06T23:58:00.110Z,46.40
